Fairlane, Mississippi
Current Conditions -  °F | °C
As of 8:50 AM on Monday 24 Nov 2014 (Local Time) from KGTR Reporting Station
Broken Clouds Broken Clouds  
Wind Chill: 55°   Ceiling: 2900
Heat Index: 55°   Visibility: 10mi
Dew Point: 45°   Wind: 16mph
Humidity: 67%   Direction: 290°WNW
Pressure: 29.85"   Gusts: NA
Location:  33.455°N, 88.5512°W
Report Text: KGTR 241450Z 29014KT 10SM BKN029 13/07 A2985
Loading
Personal Weather Stations






























Interactive Weather Map New forecast layout! Learn more

10-Day Weather Forecast

Advertisements
Track Severe Weather on mobile